Time;durP1;ratioP1;P1;durP2;ratioP2;P2;SDS_P1;SDS_P2;PMS_P1;PMS_P2;Temp;Humidity;BMP_temperature;BMP_pressure;BME280_temperature;BME280_humidity;BME280_pressure;Samples;Min_cycle;Max_cycle;Signal;HPM_P1;HPM_P2
2021/03/29 00:01:08;;;;;;;76.53;23.00;;;;;;;2.20;100.00;101929.28;1681629;85;21155;-82
2021/03/29 00:03:34;;;;;;;75.55;23.50;;;;;;;2.19;100.00;101928.97;1683069;84;20981;-82
2021/03/29 00:06:00;;;;;;;84.67;24.50;;;;;;;2.15;100.00;101932.98;1691875;84;21587;-82
2021/03/29 00:08:30;;;;;;;73.40;23.27;;;;;;;2.11;100.00;101932.14;1691854;84;21582;-82
2021/03/29 00:10:58;;;;;;;73.95;22.75;;;;;;;2.06;100.00;101927.36;1695082;84;21214;-82
2021/03/29 00:13:26;;;;;;;78.02;23.67;;;;;;;2.04;100.00;101928.02;1697231;84;21163;-83
2021/03/29 00:15:55;;;;;;;87.70;25.05;;;;;;;2.08;100.00;101925.84;1697139;84;21184;-83
2021/03/29 00:18:23;;;;;;;84.58;25.12;;;;;;;2.13;100.00;101926.17;1697161;84;21194;-82
2021/03/29 00:20:54;;;;;;;75.85;23.60;;;;;;;2.15;100.00;101922.84;1693405;84;21216;-83
2021/03/29 00:23:20;;;;;;;81.97;22.77;;;;;;;2.13;100.00;101924.84;1664952;86;21600;-83
2021/03/29 00:25:46;;;;;;;73.62;22.98;;;;;;;2.05;100.00;101923.84;1664972;86;21327;-83
2021/03/29 00:28:12;;;;;;;67.17;22.02;;;;;;;2.10;100.00;101918.53;1665100;86;21254;-83
2021/03/29 00:30:43;;;;;;;82.22;23.32;;;;;;;2.04;100.00;101914.22;1642381;86;21056;-82
2021/03/29 00:33:10;;;;;;;69.35;21.97;;;;;;;2.03;100.00;101913.91;1664979;86;21198;-82
2021/03/29 00:35:39;;;;;;;74.87;23.55;;;;;;;1.99;100.00;101909.91;1665080;86;21216;-83
2021/03/29 00:38:08;;;;;;;69.53;23.02;;;;;;;2.03;100.00;101909.09;1642419;86;21186;-82
2021/03/29 00:40:37;;;;;;;66.12;21.50;;;;;;;2.07;100.00;101905.58;1665025;86;21143;-82
2021/03/29 00:43:14;;;;;;;69.35;20.85;;;;;;;2.10;100.00;101902.58;1665141;86;21617;-83
2021/03/29 00:45:42;;;;;;;65.90;20.55;;;;;;;2.04;100.00;101903.59;1664982;86;21163;-82
2021/03/29 00:48:10;;;;;;;65.55;21.80;;;;;;;1.99;100.00;101904.59;1665094;86;21159;-82
2021/03/29 00:50:45;;;;;;;75.50;22.52;;;;;;;2.00;100.00;101910.73;1665088;86;21608;-83
2021/03/29 00:53:13;;;;;;;64.58;21.07;;;;;;;1.73;100.00;101918.10;1645035;85;21248;-82
2021/03/29 00:55:45;;;;;;;79.50;24.15;;;;;;;1.35;100.00;101919.62;1644982;86;21151;-82
2021/03/29 00:58:14;;;;;;;73.05;22.05;;;;;;;1.32;100.00;101910.67;1645096;86;21246;-82
2021/03/29 01:00:51;;;;;;;68.78;22.25;;;;;;;1.48;100.00;101909.34;1644811;87;21267;-82
2021/03/29 01:03:25;;;;;;;62.85;20.85;;;;;;;1.59;100.00;101905.53;1620849;87;21211;-82
2021/03/29 01:05:59;;;;;;;63.13;20.27;;;;;;;1.57;100.00;101910.17;1614957;87;21683;-82
2021/03/29 01:08:26;;;;;;;74.65;21.97;;;;;;;1.45;100.00;101906.20;1516847;94;21283;-82
2021/03/29 01:10:56;;;;;;;69.58;21.42;;;;;;;1.53;100.00;101904.84;1576503;91;21254;-82
2021/03/29 01:13:23;;;;;;;73.02;21.05;;;;;;;1.55;100.00;101911.65;1556202;91;21604;-82
2021/03/29 01:15:50;;;;;;;68.15;21.10;;;;;;;1.48;100.00;101912.00;1576431;91;21184;-83
2021/03/29 01:18:19;;;;;;;63.10;20.12;;;;;;;1.54;100.00;101911.33;1576545;91;21718;-83
2021/03/29 01:21:05;;;;;;;61.58;19.98;;;;;;;1.58;100.00;101899.86;1588997;90;21177;-83
2021/03/29 01:23:32;;;;;;;65.35;19.42;;;;;;;1.65;100.00;101907.98;1591482;90;22220;-82
2021/03/29 01:26:12;;;;;;;57.80;18.85;;;;;;;1.48;100.00;101917.31;1593316;90;21681;-83
2021/03/29 01:28:39;;;;;;;53.50;18.98;;;;;;;1.41;100.00;101913.65;1518611;93;21240;-84
2021/03/29 01:31:06;;;;;;;61.50;19.45;;;;;;;1.31;100.00;101921.80;1490014;94;21309;-83
2021/03/29 01:33:33;;;;;;;66.97;19.67;;;;;;;1.41;100.00;101919.47;1465085;96;21161;-83
2021/03/29 01:36:00;;;;;;;63.48;21.60;;;;;;;1.47;100.00;101921.45;1461884;97;21218;-84
2021/03/29 01:38:30;;;;;;;60.65;18.32;;;;;;;1.48;100.00;101913.84;1464862;96;21276;-83
2021/03/29 01:40:58;;;;;;;51.37;16.62;;;;;;;1.46;100.00;101915.82;1464915;97;21273;-82
2021/03/29 01:43:27;;;;;;;55.43;17.12;;;;;;;1.55;100.00;101916.97;1464942;98;21741;-82
2021/03/29 01:45:56;;;;;;;63.73;16.70;;;;;;;1.72;100.00;101917.78;1464847;96;21272;-82
2021/03/29 01:48:24;;;;;;;54.25;16.37;;;;;;;1.77;100.00;101918.62;1465028;98;21787;-82
2021/03/29 01:50:53;;;;;;;50.03;15.83;;;;;;;1.87;100.00;101916.59;1464789;96;21246;-82
2021/03/29 01:53:23;;;;;;;48.92;14.65;;;;;;;2.00;100.00;101913.39;1464922;98;21343;-82
2021/03/29 01:55:49;;;;;;;44.77;15.95;;;;;;;2.13;100.00;101921.67;1464758;96;21292;-82
2021/03/29 01:58:18;;;;;;;43.50;14.90;;;;;;;2.33;100.00;101911.47;1464892;96;21237;-82
2021/03/29 02:00:50;;;;;;;47.70;15.10;;;;;;;2.42;100.00;101916.25;1456619;97;21738;-82
2021/03/29 02:03:16;;;;;;;44.45;13.62;;;;;;;2.50;100.00;101917.55;1370081;103;21264;-82
2021/03/29 02:05:43;;;;;;;41.20;14.58;;;;;;;2.57;100.00;101915.02;1408210;97;21263;-82
2021/03/29 02:08:10;;;;;;;37.73;12.80;;;;;;;2.66;100.00;101919.29;1426652;98;21169;-82
2021/03/29 02:10:39;;;;;;;35.08;11.80;;;;;;;2.69;100.00;101916.28;1449929;96;21242;-82
2021/03/29 02:13:09;;;;;;;37.93;12.20;;;;;;;2.78;100.00;101915.23;1494808;94;21355;-82
2021/03/29 02:15:36;;;;;;;39.55;12.05;;;;;;;2.82;100.00;101918.36;1464693;98;21269;-82
2021/03/29 02:18:25;;;;;;;40.83;12.43;;;;;;;2.88;100.00;101911.00;1464688;96;21801;-82
2021/03/29 02:20:53;;;;;;;38.35;11.57;;;;;;;3.01;100.00;101903.27;1411157;101;21326;-83
2021/03/29 02:23:21;;;;;;;35.90;11.78;;;;;;;3.06;100.00;101906.23;1422386;99;21277;-82
2021/03/29 02:25:49;;;;;;;29.60;10.80;;;;;;;3.21;100.00;101908.95;1422215;99;21289;-82
2021/03/29 02:28:16;;;;;;;39.13;11.40;;;;;;;3.13;100.00;101912.49;1422348;99;21296;-82
2021/03/29 02:30:44;;;;;;;31.77;12.55;;;;;;;3.28;100.00;101910.39;1422410;100;21257;-82
2021/03/29 02:33:13;;;;;;;37.67;11.22;;;;;;;3.29;100.00;101916.03;1422303;99;21334;-82
2021/03/29 02:35:41;;;;;;;34.20;11.10;;;;;;;3.35;100.00;101913.98;1422319;99;21713;-83
2021/03/29 02:38:13;;;;;;;39.80;11.73;;;;;;;3.33;100.00;101909.36;1422456;99;22039;-83
2021/03/29 02:40:41;;;;;;;34.20;12.03;;;;;;;3.33;100.00;101903.52;1422534;99;21192;-82
2021/03/29 02:43:09;;;;;;;37.75;11.40;;;;;;;3.40;100.00;101902.29;1422363;99;21862;-82
2021/03/29 02:45:40;;;;;;;40.70;11.73;;;;;;;3.48;100.00;101904.89;1422359;99;21189;-83
2021/03/29 02:48:10;;;;;;;37.13;11.57;;;;;;;3.41;100.00;101901.27;1422346;100;21365;-83
2021/03/29 02:50:44;;;;;;;34.03;11.57;;;;;;;3.48;100.00;101899.56;1422327;99;21670;-84
2021/03/29 02:53:17;;;;;;;42.20;13.10;;;;;;;3.52;100.00;101908.02;1422370;99;21762;-83
2021/03/29 02:55:46;;;;;;;37.63;12.05;;;;;;;3.56;100.00;101902.16;1378074;102;21265;-83
2021/03/29 02:58:17;;;;;;;36.63;12.43;;;;;;;3.50;100.00;101904.21;1378229;102;21190;-82
2021/03/29 03:00:43;;;;;;;35.85;12.45;;;;;;;3.20;100.00;101913.94;1380662;103;21779;-82
2021/03/29 03:03:10;;;;;;;35.40;12.30;;;;;;;2.95;100.00;101919.44;1381765;102;21216;-82
2021/03/29 03:05:39;;;;;;;36.50;12.20;;;;;;;2.96;100.00;101926.42;1383265;97;21266;-83
2021/03/29 03:08:07;;;;;;;36.20;10.93;;;;;;;2.94;100.00;101924.93;1475159;95;21639;-82
2021/03/29 03:10:36;;;;;;;29.60;11.38;;;;;;;2.96;100.00;101921.09;1503734;94;21299;-83
2021/03/29 03:13:06;;;;;;;37.65;10.55;;;;;;;3.09;100.00;101917.01;1502737;94;21645;-83
2021/03/29 03:15:34;;;;;;;32.53;12.25;;;;;;;3.05;100.00;101925.86;1570023;90;21278;-82
2021/03/29 03:18:04;;;;;;;33.85;12.23;;;;;;;3.09;100.00;101931.66;1585758;90;21217;-83
2021/03/29 03:20:32;;;;;;;31.50;12.10;;;;;;;2.98;100.00;101931.58;1559842;92;21203;-83
2021/03/29 03:23:07;;;;;;;35.33;12.65;;;;;;;2.95;100.00;101937.26;1585628;90;21182;-82
2021/03/29 03:25:36;;;;;;;35.23;12.45;;;;;;;2.90;100.00;101944.43;1512970;94;21272;-82
2021/03/29 03:28:06;;;;;;;35.05;11.43;;;;;;;2.90;100.00;101940.94;1513066;94;21877;-82
2021/03/29 03:30:39;;;;;;;39.38;12.43;;;;;;;2.92;100.00;101948.27;1512849;94;21220;-82
2021/03/29 03:33:07;;;;;;;39.73;13.00;;;;;;;2.94;100.00;101946.23;1513153;94;21281;-83
2021/03/29 03:35:36;;;;;;;39.27;11.73;;;;;;;2.98;100.00;101949.40;1512988;94;21670;-83
2021/03/29 03:38:14;;;;;;;34.75;11.28;;;;;;;3.03;100.00;101951.86;1513012;94;21261;-83
2021/03/29 03:40:43;;;;;;;45.43;13.43;;;;;;;3.05;100.00;101949.00;1512946;94;21281;-83
2021/03/29 03:43:12;;;;;;;36.68;12.78;;;;;;;3.07;100.00;101957.14;1512965;94;21316;-83
2021/03/29 03:45:45;;;;;;;44.45;11.45;;;;;;;3.05;100.00;101955.16;1512874;94;21583;-83
2021/03/29 03:48:13;;;;;;;;;;;;;;;3.23;100.00;101949.53;1515281;94;21709;-83
2021/03/29 03:50:41;;;;;;;38.67;11.40;;;;;;;3.35;100.00;101965.45;1512934;94;20270;-83
2021/03/29 03:53:08;;;;;;;51.30;13.22;;;;;;;3.48;100.00;101959.52;1570707;89;21288;-83
2021/03/29 03:55:36;;;;;;;32.75;11.33;;;;;;;3.68;100.00;101955.00;1614452;88;21210;-82
2021/03/29 03:58:03;;;;;;;35.95;12.13;;;;;;;3.69;100.00;101962.84;1593210;88;21178;-83
2021/03/29 04:00:29;;;;;;;35.83;12.47;;;;;;;3.78;100.00;101963.08;1614555;88;21181;-83
2021/03/29 04:02:55;;;;;;;36.90;12.63;;;;;;;3.75;100.00;101962.63;1614493;88;21269;-83
2021/03/29 04:05:21;;;;;;;34.30;12.18;;;;;;;3.79;100.00;101955.39;1598625;88;22011;-83
2021/03/29 04:07:50;;;;;;;41.20;12.78;;;;;;;3.79;100.00;101955.39;1582864;90;21226;-83
2021/03/29 04:10:38;;;;;;;35.05;12.45;;;;;;;3.90;100.00;101947.47;1579401;90;21220;-83
2021/03/29 04:12:56;;;;;;;42.80;13.50;;;;;;;4.01;100.00;101944.36;1579109;89;21691;-84
2021/03/29 04:15:22;;;;;;;39.67;12.88;;;;;;;4.08;100.00;101934.59;1579372;90;21240;-82
2021/03/29 04:17:48;;;;;;;40.40;13.40;;;;;;;4.11;100.00;101937.41;1579210;90;21361;-83
2021/03/29 04:20:16;;;;;;;41.10;13.25;;;;;;;4.31;100.00;101931.02;1579258;90;21179;-83
2021/03/29 04:22:42;;;;;;;42.45;13.85;;;;;;;4.29;100.00;101935.70;1645905;85;21655;-83
2021/03/29 04:25:12;;;;;;;35.80;12.63;;;;;;;4.37;100.00;101934.28;1657568;86;21129;-84
2021/03/29 04:27:38;;;;;;;41.70;14.05;;;;;;;4.59;100.00;101928.52;1686924;85;21134;-85
2021/03/29 04:30:10;;;;;;;38.10;12.55;;;;;;;4.80;100.00;101929.06;1657721;86;21081;-84
2021/03/29 04:32:37;;;;;;;33.00;13.13;;;;;;;5.09;100.00;101931.30;1657821;86;21147;-84
2021/03/29 04:35:05;;;;;;;40.23;13.08;;;;;;;5.20;100.00;101933.46;1686877;85;21222;-84
2021/03/29 04:37:31;;;;;;;34.35;12.05;;;;;;;5.59;100.00;101925.47;1657697;86;21045;-84
2021/03/29 04:39:57;;;;;;;36.63;12.82;;;;;;;6.00;100.00;101930.11;1657695;86;21056;-84
2021/03/29 04:42:23;;;;;;;33.70;11.53;;;;;;;6.26;100.00;101926.25;1657659;86;21215;-84
2021/03/29 04:44:49;;;;;;;36.08;13.13;;;;;;;6.68;100.00;101925.73;1686685;84;21017;-85
2021/03/29 04:47:15;;;;;;;39.03;11.88;;;;;;;6.99;100.00;101933.73;1657674;86;21037;-85
2021/03/29 04:49:41;;;;;;;33.00;13.08;;;;;;;7.06;100.00;101935.94;1686926;85;20893;-85
2021/03/29 04:52:08;;;;;;;30.88;12.07;;;;;;;7.02;100.00;101937.35;1657597;86;21498;-85
2021/03/29 04:54:35;;;;;;;34.23;12.55;;;;;;;6.89;100.00;101937.34;1686836;85;21184;-85
2021/03/29 04:57:01;;;;;;;32.30;11.53;;;;;;;6.96;100.00;101937.64;1657598;86;21205;-85
2021/03/29 04:59:27;;;;;;;34.20;11.70;;;;;;;6.88;100.00;101941.02;1657482;86;21168;-86
2021/03/29 05:01:53;;;;;;;30.40;11.38;;;;;;;6.80;100.00;101942.88;1657623;86;21093;-84
2021/03/29 05:04:19;;;;;;;36.23;11.85;;;;;;;6.78;100.00;101948.94;1686896;85;20988;-84
2021/03/29 05:06:45;;;;;;;29.07;10.48;;;;;;;6.95;100.00;101949.41;1645330;86;22420;-84
2021/03/29 05:09:11;;;;;;;30.12;10.85;;;;;;;6.94;100.00;101953.61;1719448;83;21036;-84
2021/03/29 05:14:14;;;;;;;36.13;11.95;;;;;;;6.57;100.00;101951.74;1719354;83;22400;-84
2021/03/29 05:16:42;;;;;;;32.25;12.05;;;;;;;6.56;100.00;101958.95;1719314;83;21183;-84
2021/03/29 05:19:10;;;;;;;35.70;11.18;;;;;;;6.52;100.00;101958.20;1719365;83;21209;-84
2021/03/29 05:21:36;;;;;;;35.10;11.85;;;;;;;6.01;100.00;101957.20;1719335;83;21139;-84
2021/03/29 05:24:04;;;;;;;34.10;12.55;;;;;;;5.98;100.00;101955.74;1719481;83;21191;-84
2021/03/29 05:26:30;;;;;;;31.50;11.75;;;;;;;5.79;100.00;101954.53;1719404;83;21573;-84
2021/03/29 05:28:56;;;;;;;33.95;12.10;;;;;;;5.94;100.00;101952.30;1723289;83;20981;-84
2021/03/29 05:31:22;;;;;;;41.77;12.13;;;;;;;6.01;100.00;101954.02;1719574;83;21202;-83
2021/03/29 05:33:49;;;;;;;36.85;12.03;;;;;;;6.08;100.00;101962.08;1719286;83;21219;-84
2021/03/29 05:36:16;;;;;;;28.05;10.30;;;;;;;6.37;100.00;101962.36;1719424;83;21207;-83
2021/03/29 05:38:46;;;;;;;31.87;10.70;;;;;;;6.28;100.00;101962.20;1708786;82;21169;-85
2021/03/29 05:41:14;;;;;;;35.80;11.03;;;;;;;6.44;100.00;101971.27;1705800;84;21555;-82
2021/03/29 05:43:42;;;;;;;32.00;10.70;;;;;;;6.50;100.00;101977.65;1705834;84;22008;-82
2021/03/29 05:46:08;;;;;;;33.40;11.45;;;;;;;6.51;100.00;101972.63;1705863;83;21141;-82
2021/03/29 05:48:38;;;;;;;33.58;11.90;;;;;;;6.68;100.00;101975.80;1705872;83;21070;-83
2021/03/29 05:51:07;;;;;;;37.20;11.57;;;;;;;6.72;100.00;101979.72;1705702;84;21056;-84
2021/03/29 05:53:35;;;;;;;39.42;12.53;;;;;;;6.99;100.00;101987.34;1705923;84;21078;-82
2021/03/29 05:56:04;;;;;;;35.52;11.88;;;;;;;6.81;100.00;101982.54;1705880;83;21200;-84
2021/03/29 05:58:35;;;;;;;38.17;12.07;;;;;;;6.59;100.00;101984.00;1705811;83;21149;-84
2021/03/29 06:00:58;;;;;;;36.55;12.98;;;;;;;6.74;100.00;101992.42;1703132;83;21170;-83
2021/03/29 06:03:37;;;;;;;35.48;12.80;;;;;;;7.10;100.00;101984.59;1706058;83;21070;-83
2021/03/29 06:06:19;;;;;;;44.80;13.03;;;;;;;6.93;100.00;101992.17;1707185;83;21650;-83
2021/03/29 06:08:51;;;;;;;42.75;12.80;;;;;;;6.88;100.00;101987.39;1708869;83;21390;-83
2021/03/29 06:11:36;;;;;;;40.28;13.20;;;;;;;7.02;100.00;101985.59;1708655;83;21158;-83
2021/03/29 06:14:21;;;;;;;40.48;12.43;;;;;;;7.19;100.00;101988.22;1708759;83;21157;-84
2021/03/29 06:17:11;;;;;;;34.48;12.50;;;;;;;7.49;100.00;101989.20;1708854;84;21235;-84
2021/03/29 06:19:58;;;;;;;39.88;12.63;;;;;;;7.80;100.00;101988.61;1647016;86;21572;-83
2021/03/29 06:22:42;;;;;;;29.75;12.33;;;;;;;7.73;100.00;101988.62;1650529;85;21232;-84
2021/03/29 06:25:16;;;;;;;35.83;12.68;;;;;;;8.24;100.00;101983.09;1650728;86;21203;-82
2021/03/29 06:30:37;;;;;;;33.30;11.73;;;;;;;7.92;100.00;101998.20;1533480;93;21300;-85
2021/03/29 06:33:17;;;;;;;30.80;11.63;;;;;;;8.28;100.00;101999.08;1516878;94;21314;-85
2021/03/29 06:35:55;;;;;;;29.35;11.78;;;;;;;8.92;100.00;101989.39;1533492;93;21216;-83
2021/03/29 06:38:28;;;;;;;34.08;12.68;;;;;;;9.76;93.20;101987.39;1509237;95;21195;-83
2021/03/29 06:41:05;;;;;;;29.35;11.80;;;;;;;10.78;89.79;101987.81;1509281;95;21298;-86
2021/03/29 06:43:38;;;;;;;32.73;11.88;;;;;;;10.97;78.14;101985.08;1533427;93;21639;-85
2021/03/29 06:46:26;;;;;;;27.07;11.38;;;;;;;11.56;66.52;101990.98;1509233;95;21647;-86
2021/03/29 06:48:54;;;;;;;27.45;11.57;;;;;;;11.73;59.91;101995.16;1515975;93;21241;-88
2021/03/29 06:51:24;;;;;;;27.05;11.85;;;;;;;12.90;55.89;102001.55;1515984;94;21288;-89
2021/03/29 06:54:07;;;;;;;23.57;10.88;;;;;;;14.66;51.87;101998.20;1516047;93;21314;-88
2021/03/29 06:56:44;;;;;;;27.35;11.28;;;;;;;15.58;50.37;101993.71;1516137;93;21245;-94
2021/03/29 06:59:20;;;;;;;23.67;10.08;;;;;;;14.54;47.24;101995.06;1516698;93;21682;-95
2021/03/29 07:01:52;;;;;;;22.35;10.50;;;;;;;12.70;50.74;102006.01;1487942;95;21306;-96
2021/03/29 07:04:27;;;;;;;31.52;11.12;;;;;;;12.89;52.25;102006.14;1491310;96;21367;-96
2021/03/29 07:06:58;;;;;;;23.50;10.25;;;;;;;13.06;53.16;102003.50;1489361;95;21190;-96
2021/03/29 07:09:24;;;;;;;23.62;10.15;;;;;;;12.64;55.06;101996.96;1490360;96;21221;-96
2021/03/29 07:11:50;;;;;;;26.70;11.10;;;;;;;13.47;50.64;101996.15;1490639;96;21131;-96
2021/03/29 07:14:22;;;;;;;24.35;10.40;;;;;;;15.03;50.39;102002.44;1489943;96;21326;-92
2021/03/29 07:16:49;;;;;;;21.33;10.20;;;;;;;16.43;45.99;102006.02;1509813;94;21721;-86
2021/03/29 07:19:16;;;;;;;20.95;10.48;;;;;;;15.95;45.11;101999.75;1487299;96;21819;-86
2021/03/29 07:21:43;;;;;;;24.95;9.75;;;;;;;15.75;44.95;102008.56;1461507;98;21242;-86
2021/03/29 07:24:12;;;;;;;22.48;10.53;;;;;;;16.01;43.57;102009.58;1495913;94;21157;-88
2021/03/29 07:26:53;;;;;;;23.32;10.23;;;;;;;17.53;41.76;102018.09;1516075;94;21370;-88
2021/03/29 07:29:31;;;;;;;21.95;10.00;;;;;;;17.30;40.02;102000.90;1519572;94;21336;-88
2021/03/29 07:32:02;;;;;;;18.62;9.55;;;;;;;16.87;40.72;102005.14;1545025;92;21197;-88
2021/03/29 07:34:51;;;;;;;22.95;10.43;;;;;;;17.09;41.80;102004.10;1492357;95;21221;-88
2021/03/29 07:37:39;;;;;;;17.73;9.63;;;;;;;16.77;41.52;102015.46;1559955;91;21200;-88
2021/03/29 07:40:20;;;;;;;22.10;8.90;;;;;;;15.68;42.09;102007.43;1508598;93;21285;-86
2021/03/29 07:42:51;;;;;;;17.07;9.28;;;;;;;17.69;40.63;102014.81;1508743;95;21178;-89
2021/03/29 07:45:21;;;;;;;14.43;7.80;;;;;;;17.65;40.55;101999.56;1523113;90;21223;-88
2021/03/29 07:47:54;;;;;;;20.08;8.60;;;;;;;18.76;37.64;102009.16;1532456;92;21273;-88
2021/03/29 07:50:31;;;;;;;19.85;9.23;;;;;;;19.26;38.21;101998.23;1532608;93;21209;-88
2021/03/29 07:53:07;;;;;;;24.90;9.58;;;;;;;18.59;38.77;102001.86;1532617;92;22046;-88
2021/03/29 07:55:38;;;;;;;20.20;9.05;;;;;;;18.21;38.92;102001.98;1532531;92;21312;-87
2021/03/29 07:58:07;;;;;;;22.65;8.95;;;;;;;17.11;39.11;102015.01;1535437;92;21149;-88
2021/03/29 08:00:39;;;;;;;17.50;8.00;;;;;;;17.27;39.43;102010.43;1532519;92;21264;-87
2021/03/29 08:03:19;;;;;;;18.12;7.45;;;;;;;18.79;37.03;102002.33;1532629;92;21653;-87
2021/03/29 08:05:51;;;;;;;18.23;7.92;;;;;;;17.28;37.57;102016.69;1532848;92;21234;-87
2021/03/29 08:08:33;;;;;;;24.05;10.08;;;;;;;18.59;36.57;102007.32;1535026;93;21151;-87
2021/03/29 08:11:13;;;;;;;22.60;8.80;;;;;;;17.69;38.43;102013.45;1535077;93;21692;-86
2021/03/29 08:13:53;;;;;;;16.70;8.63;;;;;;;17.10;38.74;102001.67;1534908;93;21220;-87
2021/03/29 08:16:29;;;;;;;15.60;7.95;;;;;;;18.88;36.19;102004.73;1519395;94;21179;-88
2021/03/29 08:19:24;;;;;;;17.23;8.78;;;;;;;20.32;33.88;102013.44;1502760;95;21200;-88
2021/03/29 08:22:14;;;;;;;19.17;8.85;;;;;;;19.87;34.55;101992.30;1502692;95;21357;-88
2021/03/29 08:24:44;;;;;;;16.20;8.20;;;;;;;20.67;33.27;101999.09;1518028;91;21249;-88
2021/03/29 08:27:18;;;;;;;16.35;8.15;;;;;;;21.74;32.12;102000.27;1569542;91;21178;-88
2021/03/29 08:29:49;;;;;;;15.90;7.90;;;;;;;21.12;32.98;102001.50;1539370;89;21238;-89
2021/03/29 08:32:26;;;;;;;12.53;7.17;;;;;;;20.09;34.02;102010.13;1470625;95;21681;-89
2021/03/29 08:35:11;;;;;;;14.85;8.10;;;;;;;20.72;32.51;102012.73;1516103;94;21282;-89
2021/03/29 08:37:47;;;;;;;14.23;7.00;;;;;;;20.57;32.30;102021.16;1493781;94;21218;-90
2021/03/29 08:40:27;;;;;;;13.28;7.40;;;;;;;19.25;32.50;102000.70;1469797;97;21277;-90
2021/03/29 08:42:58;;;;;;;21.50;9.60;;;;;;;20.67;33.02;102010.05;1486614;96;22477;-91
2021/03/29 08:45:26;;;;;;;22.65;10.65;;;;;;;18.58;34.02;102002.38;1464144;97;21384;-90
2021/03/29 08:47:58;;;;;;;15.68;8.20;;;;;;;17.95;37.03;102002.02;1464282;98;21238;-89
2021/03/29 08:50:35;;;;;;;17.95;9.13;;;;;;;18.05;36.57;102009.36;1464310;98;21252;-91
2021/03/29 08:53:07;;;;;;;18.35;8.48;;;;;;;19.42;35.13;102004.42;1465552;98;21307;-90
2021/03/29 08:55:37;;;;;;;16.02;8.70;;;;;;;19.21;34.95;102012.77;1459094;98;21198;-90
2021/03/29 08:58:05;;;;;;;19.10;8.70;;;;;;;18.16;35.86;102010.43;1460687;98;21233;-90
2021/03/29 09:00:38;;;;;;;15.03;7.67;;;;;;;18.95;33.54;102016.19;1463735;98;21189;-90
2021/03/29 09:03:20;;;;;;;16.75;8.70;;;;;;;21.65;31.63;102002.08;1445068;99;21258;-90
2021/03/29 09:05:46;;;;;;;15.35;7.97;;;;;;;20.65;31.53;102005.45;1422563;99;21577;-90
2021/03/29 09:08:13;;;;;;;19.60;7.72;;;;;;;21.62;30.95;101994.45;1421734;99;21196;-89
2021/03/29 09:10:40;;;;;;;20.62;7.87;;;;;;;17.79;33.71;102001.20;1420492;99;21292;-90
2021/03/29 09:13:13;;;;;;;17.92;7.92;;;;;;;20.07;31.13;102002.78;1428695;99;21245;-91
2021/03/29 09:15:43;;;;;;;13.45;7.60;;;;;;;21.03;31.42;102003.56;1483405;94;21308;-92
2021/03/29 09:18:13;;;;;;;19.35;8.48;;;;;;;21.16;30.48;102008.04;1425939;98;21295;-91
2021/03/29 09:20:45;;;;;;;19.70;7.83;;;;;;;20.76;31.81;102009.66;1438028;98;21657;-89
2021/03/29 09:23:13;;;;;;;17.15;8.15;;;;;;;19.15;32.27;102006.22;1420698;101;21563;-89
2021/03/29 09:25:44;;;;;;;15.90;8.18;;;;;;;20.13;31.30;102007.10;1420705;101;21229;-91
2021/03/29 09:31:14;;;;;;;17.12;7.22;;;;;;;17.53;34.54;102002.26;1402397;102;21326;-90
2021/03/29 09:33:43;;;;;;;13.78;7.17;;;;;;;16.77;36.51;102011.92;1384832;101;21818;-90
2021/03/29 09:36:14;;;;;;;16.25;7.40;;;;;;;16.58;37.21;102012.34;1402498;100;21273;-90
2021/03/29 09:38:48;;;;;;;16.65;7.72;;;;;;;15.04;39.04;102012.75;1397062;100;21628;-90
2021/03/29 09:41:25;;;;;;;16.07;7.25;;;;;;;15.51;38.59;102002.09;1395551;101;21569;-89
2021/03/29 09:43:54;;;;;;;20.75;7.05;;;;;;;15.26;39.18;102009.98;1384920;102;21533;-90
2021/03/29 09:46:33;;;;;;;16.17;6.75;;;;;;;15.57;39.03;102012.46;1394089;102;21594;-89
2021/03/29 09:49:09;;;;;;;14.18;7.03;;;;;;;14.99;41.01;102008.08;1386858;102;21340;-90
2021/03/29 09:51:38;;;;;;;13.53;5.55;;;;;;;15.83;39.49;102005.38;1381535;103;21321;-95
2021/03/29 09:54:24;;;;;;;16.48;7.03;;;;;;;16.46;38.00;102009.56;1381950;103;21749;-95
2021/03/29 09:56:50;;;;;;;14.40;6.85;;;;;;;15.39;37.34;102011.76;1400978;102;21319;-94
2021/03/29 09:59:35;;;;;;;14.13;7.28;;;;;;;16.01;38.83;102016.37;1407071;100;21252;-93
2021/03/29 10:02:00;;;;;;;19.70;8.80;;;;;;;16.03;40.43;102020.99;1432133;96;21220;-96
2021/03/29 10:04:26;;;;;;;18.40;7.95;;;;;;;16.18;39.91;102018.40;1448954;98;21659;-94
2021/03/29 10:06:56;;;;;;;25.23;9.18;;;;;;;16.09;38.03;102030.85;1431240;100;21154;-93
2021/03/29 10:09:33;;;;;;;19.15;8.25;;;;;;;16.22;38.56;102033.65;1424654;99;21605;-93
2021/03/29 10:12:00;;;;;;;23.18;9.28;;;;;;;16.20;39.57;102026.28;1413270;100;21226;-93
2021/03/29 10:14:38;;;;;;;17.77;8.18;;;;;;;16.99;37.13;102023.42;1410527;101;21409;-95
2021/03/29 10:17:17;;;;;;;17.82;8.88;;;;;;;16.44;37.74;102026.69;1370111;103;21280;-94
2021/03/29 10:19:44;;;;;;;32.78;12.70;;;;;;;16.06;38.09;102024.55;1390706;100;21349;-93
2021/03/29 10:22:15;;;;;;;15.40;7.03;;;;;;;16.18;40.73;102026.56;1433562;100;21297;-93
2021/03/29 10:27:55;;;;;;;16.73;7.62;;;;;;;16.61;38.91;102027.33;1429663;100;21331;-93
2021/03/29 10:30:28;;;;;;;22.22;8.73;;;;;;;16.61;38.91;102019.70;1401000;100;21813;-93
2021/03/29 10:32:59;;;;;;;18.87;7.85;;;;;;;16.61;38.30;102021.88;1452113;97;21288;-94
2021/03/29 10:35:29;;;;;;;22.80;8.63;;;;;;;16.35;38.68;102017.69;1488505;95;21290;-93
2021/03/29 10:37:57;;;;;;;20.05;8.70;;;;;;;16.22;39.05;102034.46;1512447;94;21167;-93
2021/03/29 10:40:24;;;;;;;28.25;8.78;;;;;;;15.87;39.67;102015.99;1525062;93;21330;-92
2021/03/29 10:42:50;;;;;;;21.07;7.75;;;;;;;16.00;39.35;102021.00;1524513;93;21278;-91
2021/03/29 10:45:19;;;;;;;17.65;7.50;;;;;;;15.49;40.82;102026.52;1524600;93;21247;-91
2021/03/29 10:47:47;;;;;;;18.37;7.40;;;;;;;15.64;40.61;102019.84;1524643;94;21226;-91
2021/03/29 10:50:20;;;;;;;18.55;7.95;;;;;;;16.00;39.54;102031.03;1524984;94;21282;-90
2021/03/29 10:52:46;;;;;;;19.55;7.03;;;;;;;15.81;40.04;102026.01;1525087;93;21457;-90
2021/03/29 10:55:14;;;;;;;17.85;6.42;;;;;;;15.63;39.77;102035.88;1524992;94;21197;-92
2021/03/29 10:57:40;;;;;;;19.40;6.58;;;;;;;15.16;41.55;102027.00;1512774;94;21693;-91
2021/03/29 11:00:08;;;;;;;17.52;6.53;;;;;;;15.51;39.98;102025.73;1509819;93;21226;-93
2021/03/29 11:02:35;;;;;;;22.80;7.33;;;;;;;15.30;39.52;102033.67;1497882;94;21263;-92
2021/03/29 11:05:03;;;;;;;13.15;6.62;;;;;;;14.99;40.29;102048.80;1526462;92;21262;-96
2021/03/29 11:07:29;;;;;;;16.48;6.03;;;;;;;14.28;41.46;102037.25;1533892;89;21144;-96
2021/03/29 11:09:56;;;;;;;14.50;6.22;;;;;;;14.19;42.82;102029.80;1537307;90;21751;-94
2021/03/29 11:12:23;;;;;;;20.23;7.17;;;;;;;14.73;41.63;102029.48;1539138;91;21667;-93
2021/03/29 11:14:49;;;;;;;15.23;6.25;;;;;;;13.99;42.75;102050.09;1558749;91;21243;-91
2021/03/29 11:17:15;;;;;;;19.37;6.30;;;;;;;14.47;42.22;102038.32;1588352;90;21256;-93
2021/03/29 11:19:41;;;;;;;17.23;6.42;;;;;;;14.34;41.62;102030.02;1582749;90;21760;-92
2021/03/29 11:22:07;;;;;;;17.02;6.15;;;;;;;14.76;41.94;102037.14;1572941;91;20997;-93
2021/03/29 11:24:33;;;;;;;16.07;5.92;;;;;;;14.27;41.66;102036.98;1667443;83;21188;-92
2021/03/29 11:26:58;;;;;;;20.02;7.58;;;;;;;14.08;42.03;102036.41;1725053;83;21138;-94
2021/03/29 11:29:24;;;;;;;18.27;7.45;;;;;;;14.40;42.19;102029.02;1715273;81;21168;-91
2021/03/29 11:31:50;;;;;;;20.10;6.55;;;;;;;14.34;42.54;102033.27;1710291;83;20932;-91
2021/03/29 11:34:17;;;;;;;18.57;7.00;;;;;;;14.57;42.00;102039.05;1724672;81;20994;-92
2021/03/29 11:36:43;;;;;;;16.00;6.25;;;;;;;14.84;41.72;102026.36;1727590;83;21180;-93
2021/03/29 11:39:11;;;;;;;14.23;6.30;;;;;;;14.67;43.14;102034.56;1727511;83;21176;-94